createdAt,value
2017-12-08T00:00:24.198Z,91.66
2017-12-08T00:01:35.317Z,91.94
2017-12-08T00:02:45.677Z,91.66
2017-12-08T00:03:55.941Z,91.56
2017-12-08T00:05:05.973Z,91.38
2017-12-08T00:06:16.454Z,91.09
2017-12-08T00:07:26.769Z,91.19
2017-12-08T00:08:37.034Z,91.09
2017-12-08T00:09:47.191Z,91.09
2017-12-08T00:10:57.056Z,91.19
2017-12-08T00:12:06.543Z,91.56
2017-12-08T00:13:16.698Z,91.09
2017-12-08T00:14:27.441Z,91.19
2017-12-08T00:15:37.512Z,91.19
2017-12-08T00:16:48.079Z,91.28
2017-12-08T00:17:58.333Z,91.09
2017-12-08T00:19:08.841Z,90.99
2017-12-08T00:20:19.505Z,91.23
2017-12-08T00:21:29.725Z,91.28
2017-12-08T00:22:40.069Z,91.47
2017-12-08T00:23:50.754Z,91.19
2017-12-08T00:25:00.909Z,90.56
2017-12-08T00:26:11.413Z,90.94
2017-12-08T00:27:21.556Z,90.66
2017-12-08T00:28:31.849Z,91.04
2017-12-08T00:29:41.795Z,90.75
2017-12-08T00:30:51.886Z,90.85
2017-12-08T00:32:02.596Z,90.85
2017-12-08T00:33:12.702Z,90.42
2017-12-08T00:34:23.101Z,90.28
2017-12-08T00:35:33.569Z,90.23
2017-12-08T00:36:43.821Z,89.67
2017-12-08T00:37:54.064Z,90.09
2017-12-08T00:39:04.461Z,89.86
2017-12-08T00:40:14.988Z,90.37
2017-12-08T00:41:25.333Z,90.28
2017-12-08T00:42:35.897Z,90
2017-12-08T00:43:46.463Z,90
2017-12-08T00:44:56.704Z,90.19
2017-12-08T00:46:07.164Z,89.42
2017-12-08T00:47:17.804Z,89.61
2017-12-08T00:48:28.076Z,89.71
2017-12-08T00:49:38.835Z,89.33
2017-12-08T00:50:49.286Z,89.52
2017-12-08T00:51:59.812Z,89.23
2017-12-08T00:53:10.259Z,89.33
2017-12-08T00:54:20.657Z,89.23
2017-12-08T00:55:30.977Z,88.85
2017-12-08T00:56:41.166Z,88.85
2017-12-08T00:57:51.810Z,89.04
2017-12-08T00:59:02.314Z,88.85
2017-12-08T01:00:12.701Z,88.57
2017-12-08T01:01:22.904Z,88.09
2017-12-08T01:02:32.918Z,88.28
2017-12-08T01:03:43.243Z,88.47
2017-12-08T01:04:53.609Z,88.95
2017-12-08T01:06:03.873Z,87.81
2017-12-08T01:07:14.340Z,88.19
2017-12-08T01:08:24.855Z,88.38
2017-12-08T01:09:35.238Z,88.47
2017-12-08T01:10:45.549Z,88.38
2017-12-08T01:11:55.835Z,88.47
2017-12-08T01:13:05.575Z,88.47
2017-12-08T01:14:15.741Z,88.47
2017-12-08T01:15:26.170Z,88.38
2017-12-08T01:16:36.515Z,88.47
2017-12-08T01:17:47.904Z,88.57
2017-12-08T01:18:59.512Z,88.19
2017-12-08T01:20:09.320Z,88
2017-12-08T01:21:20.018Z,88.19
2017-12-08T01:22:30.493Z,88.19
2017-12-08T01:23:40.798Z,88.28
2017-12-08T01:24:51.237Z,87.9
2017-12-08T01:26:01.649Z,88.09
2017-12-08T01:27:12.230Z,88.09
2017-12-08T01:28:22.294Z,87.9
2017-12-08T01:29:32.488Z,87.81
2017-12-08T01:30:42.710Z,88.19
2017-12-08T01:31:53.087Z,88.19
2017-12-08T01:33:03.818Z,88.19
2017-12-08T01:34:14.293Z,88.47
2017-12-08T01:35:24.345Z,88.28
2017-12-08T01:36:34.822Z,88.19
2017-12-08T01:37:44.573Z,88.09
2017-12-08T01:38:54.830Z,88.19
2017-12-08T01:40:04.699Z,88.28
2017-12-08T01:41:14.524Z,88.19
2017-12-08T01:42:24.800Z,87.81
2017-12-08T01:43:35.105Z,88.09
2017-12-08T01:44:45.323Z,88.28
2017-12-08T01:45:55.211Z,88.67
2017-12-08T01:47:05.456Z,88.38
2017-12-08T01:48:15.664Z,88.28
2017-12-08T01:49:25.638Z,88.47
2017-12-08T01:50:35.922Z,88.38
2017-12-08T01:51:46.184Z,88.47
2017-12-08T01:52:56.183Z,88.47
2017-12-08T01:54:06.661Z,88.38
2017-12-08T01:55:17.173Z,88.67
2017-12-08T01:56:27.563Z,88.28
2017-12-08T01:57:38.294Z,88.09
2017-12-08T01:58:48.295Z,88.28
2017-12-08T01:59:58.334Z,88.47
2017-12-08T02:01:08.357Z,88.67
2017-12-08T02:02:18.666Z,88.28
2017-12-08T02:03:28.948Z,88.28
2017-12-08T02:04:39.258Z,88.09
2017-12-08T02:05:49.539Z,88.19
2017-12-08T02:06:59.216Z,88.09
2017-12-08T02:08:09.480Z,88.67
2017-12-08T02:09:19.463Z,88.09
2017-12-08T02:10:29.956Z,88.28
2017-12-08T02:11:39.852Z,88
2017-12-08T02:12:50.257Z,88.38
2017-12-08T02:13:59.998Z,88.19
2017-12-08T02:15:09.996Z,88.28
2017-12-08T02:16:20.382Z,88.57
2017-12-08T02:17:30.290Z,88.95
2017-12-08T02:18:40.611Z,88.76
2017-12-08T02:19:50.618Z,88.76
2017-12-08T02:21:01.189Z,88.76
2017-12-08T02:22:11.185Z,88.76
2017-12-08T02:23:21.432Z,88.67
2017-12-08T02:24:31.682Z,89.14
2017-12-08T02:25:41.965Z,88.38
2017-12-08T02:26:51.948Z,88.67
2017-12-08T02:28:02.229Z,88.9
2017-12-08T02:29:12.493Z,88.9
2017-12-08T02:30:22.802Z,89.04
2017-12-08T02:31:33.227Z,88.67
2017-12-08T02:32:43.547Z,89.09
2017-12-08T02:33:54.160Z,89
2017-12-08T02:35:04.171Z,89.09
2017-12-08T02:36:14.701Z,88.9
2017-12-08T02:37:24.956Z,88.9
2017-12-08T02:38:35.224Z,88.9
2017-12-08T02:39:45.774Z,88.81
2017-12-08T02:40:55.823Z,88.81
2017-12-08T02:42:06.155Z,89
2017-12-08T02:43:16.457Z,89.19
2017-12-08T02:44:26.452Z,89.09
2017-12-08T02:45:36.487Z,89.09
2017-12-08T02:46:46.748Z,89.19
2017-12-08T02:47:56.662Z,89.67
2017-12-08T02:49:07.003Z,89.28
2017-12-08T02:50:17.299Z,89.28
2017-12-08T02:51:27.308Z,89.19
2017-12-08T02:52:37.591Z,89.28
2017-12-08T02:53:47.625Z,89.19
2017-12-08T02:54:57.369Z,89.19
2017-12-08T02:56:07.002Z,89.38
2017-12-08T02:57:17.280Z,89.28
2017-12-08T02:58:27.005Z,89.57
2017-12-08T02:59:37.053Z,89.47
2017-12-08T03:00:47.318Z,89.67
2017-12-08T03:01:58.266Z,89.47
2017-12-08T03:03:08.252Z,89.57
2017-12-08T03:04:18.774Z,89.67
2017-12-08T03:05:29.069Z,89.67
2017-12-08T03:06:39.330Z,89.67
2017-12-08T03:07:49.583Z,89.19
2017-12-08T03:08:59.680Z,89.38
2017-12-08T03:10:09.966Z,89.19
2017-12-08T03:11:20.339Z,89.09
2017-12-08T03:12:30.613Z,89.57
2017-12-08T03:13:40.887Z,89.28
2017-12-08T03:14:50.913Z,89.38
2017-12-08T03:16:00.915Z,89.67
2017-12-08T03:17:11.177Z,89.67
2017-12-08T03:18:21.452Z,89.38
2017-12-08T03:19:31.713Z,89.47
2017-12-08T03:20:42.157Z,89.19
2017-12-08T03:21:52.451Z,89.57
2017-12-08T03:23:02.717Z,89.57
2017-12-08T03:24:12.462Z,89.28
2017-12-08T03:25:22.750Z,89.19
2017-12-08T03:26:32.674Z,89.38
2017-12-08T03:27:43.055Z,89.19
2017-12-08T03:28:53.319Z,89.19
2017-12-08T03:30:03.616Z,89.19
2017-12-08T03:31:13.636Z,89.38
2017-12-08T03:32:24.156Z,89.09
2017-12-08T03:33:33.966Z,89.38
2017-12-08T03:34:44.260Z,88.62
2017-12-08T03:35:54.293Z,89.09
2017-12-08T03:37:04.717Z,89.28
2017-12-08T03:38:15.075Z,89
2017-12-08T03:39:25.136Z,89.28
2017-12-08T03:40:35.405Z,89.19
2017-12-08T03:41:45.424Z,89.38
2017-12-08T03:42:55.826Z,89.28
2017-12-08T03:44:05.808Z,88.9
2017-12-08T03:45:16.119Z,89.28
2017-12-08T03:46:26.429Z,89.28
2017-12-08T03:47:36.456Z,89.19
2017-12-08T03:48:46.451Z,89.09
2017-12-08T03:49:56.779Z,89
2017-12-08T03:51:06.807Z,89.14
2017-12-08T03:52:17.175Z,89.14
2017-12-08T03:53:26.812Z,89.33
2017-12-08T03:54:37.075Z,89.57
2017-12-08T03:55:47.427Z,89.33
2017-12-08T03:56:57.676Z,89.67
2017-12-08T03:58:07.728Z,89.09
2017-12-08T03:59:18.024Z,89.57
2017-12-08T04:00:28.028Z,89.57
2017-12-08T04:01:38.362Z,89.67
2017-12-08T04:02:48.357Z,89.47
2017-12-08T04:03:58.623Z,89.57
2017-12-08T04:05:08.393Z,89.38
2017-12-08T04:06:18.807Z,89.09
2017-12-08T04:07:29.092Z,89.67
2017-12-08T04:08:39.346Z,89.28
2017-12-08T04:09:49.611Z,89.23
2017-12-08T04:10:59.865Z,89.04
2017-12-08T04:12:09.892Z,89.33
2017-12-08T04:13:19.884Z,88.81
2017-12-08T04:14:29.952Z,88.67
2017-12-08T04:15:40.248Z,89.14
2017-12-08T04:16:50.506Z,88.95
2017-12-08T04:18:01.905Z,89.19
2017-12-08T04:19:12.228Z,89.04
2017-12-08T04:20:22.269Z,89.14
2017-12-08T04:21:32.368Z,88.71
2017-12-08T04:22:42.771Z,88.81
2017-12-08T04:23:53.064Z,88.62
2017-12-08T04:25:02.962Z,89
2017-12-08T04:26:13.207Z,89.09
2017-12-08T04:27:23.461Z,88.9
2017-12-08T04:28:33.761Z,89
2017-12-08T04:29:44.261Z,88.81
2017-12-08T04:30:54.546Z,88.81
2017-12-08T04:32:04.624Z,88.81
2017-12-08T04:33:14.927Z,88.81
2017-12-08T04:34:24.841Z,88.9
2017-12-08T04:35:34.864Z,89
2017-12-08T04:36:44.775Z,88.9
2017-12-08T04:37:56.031Z,88.62
2017-12-08T04:39:06.143Z,89.28
2017-12-08T04:40:16.411Z,89.19
2017-12-08T04:41:26.688Z,89.19
2017-12-08T04:42:36.498Z,89.09
2017-12-08T04:43:46.448Z,88.71
2017-12-08T04:44:56.697Z,89.19
2017-12-08T04:46:06.697Z,89.09
2017-12-08T04:47:17.063Z,89.28
2017-12-08T04:48:27.324Z,89.09
2017-12-08T04:49:37.327Z,89
2017-12-08T04:50:47.637Z,89.09
2017-12-08T04:51:57.685Z,88.9
2017-12-08T04:53:07.684Z,88.62
2017-12-08T04:54:17.686Z,87.95
2017-12-08T04:55:27.721Z,88.34
2017-12-08T04:56:37.795Z,88.53
2017-12-08T04:57:48.172Z,88.15
2017-12-08T04:58:58.443Z,88.34
2017-12-08T05:00:08.704Z,87.95
2017-12-08T05:01:19.123Z,87.86
2017-12-08T05:02:29.147Z,87.57
2017-12-08T05:03:39.136Z,87.86
2017-12-08T05:04:49.411Z,87.57
2017-12-08T05:05:59.776Z,88.15
2017-12-08T05:07:10.887Z,88.05
2017-12-08T05:08:21.146Z,87.57
2017-12-08T05:09:31.460Z,87.38
2017-12-08T05:10:42.240Z,87.29
2017-12-08T05:11:52.610Z,87.48
2017-12-08T05:13:02.514Z,87.19
2017-12-08T05:14:12.788Z,87.1
2017-12-08T05:15:22.831Z,87.01
2017-12-08T05:16:33.357Z,87.19
2017-12-08T05:17:43.620Z,86.91
2017-12-08T05:18:53.993Z,86.91
2017-12-08T05:20:03.993Z,86.72
2017-12-08T05:21:13.982Z,86.63
2017-12-08T05:22:24.252Z,86.91
2017-12-08T05:23:34.527Z,86.53
2017-12-08T05:24:44.390Z,86.72
2017-12-08T05:25:54.386Z,86.24
2017-12-08T05:27:04.392Z,86.05
2017-12-08T05:28:14.726Z,86.43
2017-12-08T05:29:25.039Z,85.96
2017-12-08T05:30:35.047Z,86.34
2017-12-08T05:31:44.738Z,86.34
2017-12-08T05:32:55.980Z,85.77
2017-12-08T05:34:06.297Z,86.05
2017-12-08T05:35:16.586Z,85.96
2017-12-08T05:36:26.868Z,85.68
2017-12-08T05:37:37.120Z,85.68
2017-12-08T05:38:47.388Z,85.49
2017-12-08T05:39:57.547Z,85.49
2017-12-08T05:41:07.946Z,85.58
2017-12-08T05:42:18.207Z,85.01
2017-12-08T05:43:28.453Z,84.91
2017-12-08T05:44:38.786Z,85.01
2017-12-08T05:45:49.319Z,85.11
2017-12-08T05:46:59.303Z,84.91
2017-12-08T05:48:09.670Z,85.11
2017-12-08T05:49:19.575Z,85.2
2017-12-08T05:50:29.873Z,85.11
2017-12-08T05:51:40.637Z,85.58
2017-12-08T05:52:50.567Z,85.2
2017-12-08T05:54:00.668Z,85.49
2017-12-08T05:55:11.060Z,85.11
2017-12-08T05:56:21.319Z,85.11
2017-12-08T05:57:31.092Z,84.63
2017-12-08T05:58:41.119Z,84.82
2017-12-08T05:59:51.394Z,84.63
2017-12-08T06:01:01.401Z,84.63
2017-12-08T06:02:11.674Z,84.06
2017-12-08T06:03:21.930Z,84.63
2017-12-08T06:04:31.566Z,84.34
2017-12-08T06:05:41.962Z,84.16
2017-12-08T06:06:51.875Z,84.16
2017-12-08T06:08:01.869Z,83.78
2017-12-08T06:09:12.142Z,84.25
2017-12-08T06:10:22.409Z,83.97
2017-12-08T06:11:32.416Z,84.44
2017-12-08T06:12:42.740Z,84.25
2017-12-08T06:13:53.008Z,84.25
2017-12-08T06:15:03.296Z,84.44
2017-12-08T06:16:13.564Z,84.34
2017-12-08T06:17:23.497Z,84.34
2017-12-08T06:18:33.784Z,84.25
2017-12-08T06:19:43.770Z,84.21
2017-12-08T06:20:54.034Z,84.4
2017-12-08T06:22:04.303Z,84.25
2017-12-08T06:23:13.996Z,83.92
2017-12-08T06:24:24.320Z,84.21
2017-12-08T06:25:34.672Z,84.3
2017-12-08T06:26:44.994Z,84.21
2017-12-08T06:27:55.311Z,84.3
2017-12-08T06:29:05.567Z,84.11
2017-12-08T06:30:15.925Z,84.11
2017-12-08T06:31:26.203Z,84.11
2017-12-08T06:32:36.811Z,84.11
2017-12-08T06:33:46.924Z,84.11
2017-12-08T06:34:56.926Z,84.21
2017-12-08T06:36:07.210Z,84.11
2017-12-08T06:37:16.935Z,84.21
2017-12-08T06:38:26.921Z,84.21
2017-12-08T06:39:37.204Z,84.01
2017-12-08T06:40:47.716Z,84.11
2017-12-08T06:41:57.974Z,84.59
2017-12-08T06:43:08.363Z,84.4
2017-12-08T06:44:18.887Z,85.16
2017-12-08T06:45:29.173Z,85.16
2017-12-08T06:46:38.903Z,85.25
2017-12-08T06:47:49.340Z,85.25
2017-12-08T06:48:59.756Z,85.35
2017-12-08T06:50:09.821Z,85.06
2017-12-08T06:51:19.825Z,85.06
2017-12-08T06:52:29.996Z,84.87
2017-12-08T06:53:39.685Z,84.97
2017-12-08T06:54:49.999Z,85.53
2017-12-08T06:56:00.001Z,85.63
2017-12-08T06:57:10.008Z,85.53
2017-12-08T06:58:20.279Z,85.63
2017-12-08T06:59:30.014Z,85.53
2017-12-08T07:00:40.406Z,85.44
2017-12-08T07:01:50.425Z,85.53
2017-12-08T07:03:00.732Z,85.25
2017-12-08T07:04:10.741Z,85.35
2017-12-08T07:05:21.032Z,85.44
2017-12-08T07:06:30.932Z,85.44
2017-12-08T07:07:41.222Z,85.72
2017-12-08T07:08:51.511Z,85.53
2017-12-08T07:10:00.883Z,85.63
2017-12-08T07:11:11.171Z,85.53
2017-12-08T07:12:21.484Z,85.35
2017-12-08T07:13:31.872Z,85.16
2017-12-08T07:14:42.200Z,85.44
2017-12-08T07:15:52.545Z,85.44
2017-12-08T07:17:02.804Z,85.06
2017-12-08T07:18:13.010Z,85.06
2017-12-08T07:19:23.401Z,84.87
2017-12-08T07:20:34.648Z,85.16
2017-12-08T07:21:44.594Z,85.02
2017-12-08T07:22:55.105Z,85.06
2017-12-08T07:24:05.394Z,84.92
2017-12-08T07:25:15.030Z,85.02
2017-12-08T07:26:25.335Z,85.16
2017-12-08T07:27:35.612Z,85.11
2017-12-08T07:28:45.878Z,84.92
2017-12-08T07:29:56.172Z,84.74
2017-12-08T07:31:06.492Z,84.78
2017-12-08T07:32:17.002Z,84.49
2017-12-08T07:33:27.271Z,84.4
2017-12-08T07:34:37.297Z,84.4
2017-12-08T07:35:47.285Z,84.01
2017-12-08T07:36:57.680Z,84.45
2017-12-08T07:38:07.976Z,84.49
2017-12-08T07:39:17.977Z,84.17
2017-12-08T07:40:28.316Z,84.21
2017-12-08T07:41:38.685Z,84.36
2017-12-08T07:42:48.588Z,84.07
2017-12-08T07:43:58.895Z,84.07
2017-12-08T07:45:09.306Z,84.36
2017-12-08T07:46:19.571Z,84.17
2017-12-08T07:47:29.604Z,84.07
2017-12-08T07:48:40.138Z,84.45
2017-12-08T07:49:50.171Z,84.26
2017-12-08T07:51:00.161Z,84.26
2017-12-08T07:52:10.177Z,84.07
2017-12-08T07:53:20.450Z,84.45
2017-12-08T07:54:30.786Z,83.97
2017-12-08T07:55:40.871Z,84.36
2017-12-08T07:56:51.290Z,83.88
2017-12-08T07:58:01.297Z,83.88
2017-12-08T07:59:11.312Z,83.59
2017-12-08T08:00:21.418Z,83.88
2017-12-08T08:01:31.703Z,83.69
2017-12-08T08:02:41.978Z,83.69
2017-12-08T08:03:52.558Z,83.78
2017-12-08T08:05:02.820Z,83.88
2017-12-08T08:06:13.187Z,83.78
2017-12-08T08:07:23.149Z,83.78
2017-12-08T08:08:33.099Z,83.88
2017-12-08T08:09:42.762Z,83.69
2017-12-08T08:10:53.029Z,83.78
2017-12-08T08:12:03.078Z,83.78
2017-12-08T08:13:13.358Z,84.36
2017-12-08T08:14:23.637Z,84.26
2017-12-08T08:15:33.285Z,83.97
2017-12-08T08:16:43.778Z,84.07
2017-12-08T08:17:53.770Z,84.26
2017-12-08T08:19:03.778Z,83.78
2017-12-08T08:20:13.966Z,83.5
2017-12-08T08:21:24.292Z,83.4
2017-12-08T08:22:34.059Z,83.78
2017-12-08T08:23:44.328Z,83.59
2017-12-08T08:24:54.358Z,83.69
2017-12-08T08:26:04.676Z,83.78
2017-12-08T08:27:14.989Z,83.69
2017-12-08T08:28:24.761Z,83.69
2017-12-08T08:29:34.872Z,83.78
2017-12-08T08:30:45.152Z,83.59
2017-12-08T08:31:55.418Z,83.22
2017-12-08T08:33:05.680Z,83.22
2017-12-08T08:34:15.772Z,83.03
2017-12-08T08:35:26.033Z,83.4
2017-12-08T08:36:36.047Z,83.31
2017-12-08T08:37:46.304Z,83.5
2017-12-08T08:38:56.570Z,83.31
2017-12-08T08:40:06.859Z,83.5
2017-12-08T08:41:16.890Z,83.16
2017-12-08T08:42:26.925Z,83.16
2017-12-08T08:43:37.219Z,83.26
2017-12-08T08:44:47.516Z,82.69
2017-12-08T08:45:57.840Z,82.88
2017-12-08T08:47:08.101Z,82.78
2017-12-08T08:48:18.180Z,83.07
2017-12-08T08:49:28.514Z,83.07
2017-12-08T08:50:38.783Z,83.26
2017-12-08T08:51:49.158Z,82.88
2017-12-08T08:52:59.195Z,82.78
2017-12-08T08:54:09.293Z,82.78
2017-12-08T08:55:19.584Z,82.88
2017-12-08T08:56:29.897Z,83.07
2017-12-08T08:57:40.400Z,82.97
2017-12-08T08:58:50.695Z,82.5
2017-12-08T09:00:00.707Z,83.26
2017-12-08T09:01:10.984Z,82.59
2017-12-08T09:02:20.609Z,82.97
2017-12-08T09:03:30.912Z,83.07
2017-12-08T09:04:40.786Z,82.97
2017-12-08T09:05:50.737Z,82.97
2017-12-08T09:07:01.039Z,82.4
2017-12-08T09:08:10.672Z,82.4
2017-12-08T09:09:20.405Z,82.4
2017-12-08T09:10:30.666Z,82.21
2017-12-08T09:11:40.583Z,82.31
2017-12-08T09:12:50.892Z,82.12
2017-12-08T09:14:01.187Z,82.12
2017-12-08T09:15:11.519Z,82.12
2017-12-08T09:16:21.819Z,82.03
2017-12-08T09:17:33.083Z,82.97
2017-12-08T09:18:42.995Z,82.21
2017-12-08T09:19:53.301Z,82.12
2017-12-08T09:21:03.619Z,82.31
2017-12-08T09:22:13.875Z,82.31
2017-12-08T09:23:24.860Z,82.78
2017-12-08T09:24:35.181Z,82.78
2017-12-08T09:25:44.973Z,82.78
2017-12-08T09:26:55.308Z,82.78
2017-12-08T09:28:05.579Z,82.88
2017-12-08T09:29:15.437Z,82.97
2017-12-08T09:30:25.563Z,83.07
2017-12-08T09:31:35.592Z,82.59
2017-12-08T09:32:45.908Z,82.21
2017-12-08T09:33:56.185Z,82.12
2017-12-08T09:35:06.222Z,82.5
2017-12-08T09:36:16.484Z,81.93
2017-12-08T09:37:26.494Z,82.12
2017-12-08T09:38:36.311Z,82.03
2017-12-08T09:39:46.687Z,81.93
2017-12-08T09:40:56.945Z,81.84
2017-12-08T09:42:06.770Z,82.16
2017-12-08T09:43:17.079Z,81.4
2017-12-08T09:44:27.343Z,81.49
2017-12-08T09:45:37.764Z,81.12
2017-12-08T09:46:48.508Z,80.93
2017-12-08T09:47:58.504Z,81.21
2017-12-08T09:49:09.023Z,80.93
2017-12-08T09:50:19.319Z,80.26
2017-12-08T09:51:29.633Z,80.4
2017-12-08T09:52:39.901Z,79.25
2017-12-08T09:53:50.299Z,78.78
2017-12-08T09:55:00.301Z,78.78
2017-12-08T09:56:10.303Z,78.78
2017-12-08T09:57:20.325Z,78.74
2017-12-08T09:58:30.862Z,78.93
2017-12-08T09:59:40.880Z,79.12
2017-12-08T10:00:50.664Z,78.83
2017-12-08T10:02:00.993Z,79.22
2017-12-08T10:03:11.280Z,78.93
2017-12-08T10:04:21.280Z,79.22
2017-12-08T10:05:31.033Z,79.31
2017-12-08T10:06:41.588Z,79.03
2017-12-08T10:07:51.868Z,79.79
2017-12-08T10:09:02.237Z,79.69
2017-12-08T10:10:12.248Z,78.83
2017-12-08T10:11:22.825Z,78.4
2017-12-08T10:12:33.087Z,77.55
2017-12-08T10:13:43.356Z,76.54
2017-12-08T10:14:53.653Z,75.24
2017-12-08T10:16:04.023Z,74.8
2017-12-08T10:17:14.303Z,74.56
2017-12-08T10:18:24.583Z,73.93
2017-12-08T10:19:34.885Z,73.49
2017-12-08T10:20:44.792Z,69.62
2017-12-08T10:21:54.851Z,68.66
2017-12-08T10:23:04.869Z,65.55
2017-12-08T10:24:15.205Z,65.83
2017-12-08T10:25:25.484Z,63.96
2017-12-08T10:26:35.754Z,61.95
2017-12-08T10:27:46.023Z,62.71
2017-12-08T10:28:56.045Z,58.14
2017-12-08T10:30:06.356Z,57.68
2017-12-08T10:31:16.671Z,55.68
2017-12-08T10:32:26.721Z,55.4
2017-12-08T10:33:38.001Z,56.54
2017-12-08T10:34:47.702Z,56.25
2017-12-08T10:35:57.769Z,54.72
2017-12-08T10:37:07.785Z,54.06
2017-12-08T10:38:18.058Z,54.34
2017-12-08T10:39:27.984Z,51.57
2017-12-08T10:40:38.028Z,50.62
2017-12-08T10:41:48.501Z,52.4
2017-12-08T10:42:58.432Z,53.55
2017-12-08T10:44:08.714Z,52.4
2017-12-08T10:45:19.107Z,52.31
2017-12-08T10:46:29.427Z,50.12
2017-12-08T10:47:39.700Z,49.35
2017-12-08T10:48:49.853Z,49.73
2017-12-08T10:50:00.151Z,50.59
2017-12-08T10:51:10.483Z,50.98
2017-12-08T10:52:20.791Z,49.66
2017-12-08T10:53:31.196Z,48.39
2017-12-08T10:54:40.979Z,49.28
2017-12-08T10:55:50.992Z,48.13
2017-12-08T10:57:01.357Z,49.16
2017-12-08T10:58:11.642Z,48.59
2017-12-08T10:59:21.672Z,49.35
2017-12-08T11:00:31.778Z,48.02
2017-12-08T11:01:42.076Z,48.68
2017-12-08T11:02:52.087Z,48.78
2017-12-08T11:04:02.393Z,48.33
2017-12-08T11:05:12.694Z,46.97
2017-12-08T11:06:23.151Z,47.44
2017-12-08T11:07:33.160Z,48.39
2017-12-08T11:08:43.078Z,48.78
2017-12-08T11:09:53.445Z,49.52
2017-12-08T11:11:03.746Z,49.23
2017-12-08T11:12:14.021Z,49.62
2017-12-08T11:13:24.292Z,49.78
2017-12-08T11:14:34.322Z,50.35
2017-12-08T11:15:44.355Z,51.56
2017-12-08T11:16:54.639Z,52.11
2017-12-08T11:18:04.659Z,53.06
2017-12-08T11:19:14.969Z,53.83
2017-12-08T11:20:25.509Z,53.89
2017-12-08T11:21:35.538Z,53.7
2017-12-08T11:22:45.753Z,53.8
2017-12-08T11:23:56.052Z,54.85
2017-12-08T11:25:06.342Z,54.85
2017-12-08T11:26:16.636Z,54.91
2017-12-08T11:27:26.639Z,55.77
2017-12-08T11:28:36.956Z,55.49
2017-12-08T11:29:47.239Z,55.87
2017-12-08T11:30:57.354Z,55.77
2017-12-08T11:32:07.662Z,56.24
2017-12-08T11:33:17.938Z,55.96
2017-12-08T11:34:28.211Z,56.24
2017-12-08T11:35:38.230Z,56.24
2017-12-08T11:36:48.120Z,55.87
2017-12-08T11:37:58.437Z,55.77
2017-12-08T11:39:08.467Z,55.96
2017-12-08T11:40:18.747Z,56.34
2017-12-08T11:41:28.800Z,56.46
2017-12-08T11:42:39.145Z,55.7
2017-12-08T11:43:49.313Z,54.97
2017-12-08T11:44:59.650Z,55.35
2017-12-08T11:46:09.654Z,54.3
2017-12-08T11:47:19.964Z,54.39
2017-12-08T11:48:30.212Z,54.85
2017-12-08T11:49:40.520Z,54.88
2017-12-08T11:50:50.871Z,53.83
2017-12-08T11:52:01.029Z,54.27
2017-12-08T11:53:11.329Z,54.75
2017-12-08T11:54:21.359Z,54.94
2017-12-08T11:55:31.628Z,55.68
2017-12-08T11:56:41.875Z,56.53
2017-12-08T11:57:51.949Z,56.34
2017-12-08T11:59:02.241Z,56.92
2017-12-08T12:00:12.538Z,56.79
2017-12-08T12:01:22.812Z,56.88
2017-12-08T12:03:05.056Z,57.55
2017-12-08T12:04:15.369Z,57.65
2017-12-08T12:05:25.902Z,57.65
2017-12-08T12:06:36.171Z,57.93
2017-12-08T12:07:46.431Z,57.9
2017-12-08T12:08:56.714Z,58
2017-12-08T12:10:06.721Z,58.57
2017-12-08T12:11:16.711Z,58.76
2017-12-08T12:12:26.459Z,59.05
2017-12-08T12:13:36.758Z,59.23
2017-12-08T12:14:46.572Z,59.14
2017-12-08T12:15:56.539Z,59.52
2017-12-08T12:17:06.858Z,59.71
2017-12-08T12:18:17.135Z,59.61
2017-12-08T12:19:27.429Z,60.09
2017-12-08T12:20:37.499Z,59.71
2017-12-08T12:21:47.775Z,60.38
2017-12-08T12:22:58.177Z,60.85
2017-12-08T12:24:07.505Z,60.66
2017-12-08T12:25:17.841Z,60.66
2017-12-08T12:26:28.345Z,60.75
2017-12-08T12:27:38.394Z,61.13
2017-12-08T12:28:48.680Z,61.52
2017-12-08T12:29:58.951Z,61.04
2017-12-08T12:31:08.958Z,61.61
2017-12-08T12:32:19.236Z,61.71
2017-12-08T12:34:01.510Z,62.05
2017-12-08T12:35:11.782Z,62.34
2017-12-08T12:36:21.630Z,62.53
2017-12-08T12:37:31.533Z,62.24
2017-12-08T12:38:41.650Z,62.43
2017-12-08T12:39:52.072Z,62.34
2017-12-08T12:41:02.082Z,62.53
2017-12-08T12:42:11.998Z,62.72
2017-12-08T12:43:22.049Z,62.91
2017-12-08T12:44:32.376Z,62.91
2017-12-08T12:45:42.719Z,62.72
2017-12-08T12:46:52.730Z,62.91
2017-12-08T12:48:03.025Z,62.91
2017-12-08T12:49:13.022Z,63.2
2017-12-08T12:50:23.327Z,63.48
2017-12-08T12:51:33.607Z,63.29
2017-12-08T12:52:43.888Z,64.05
2017-12-08T12:54:25.420Z,63.76
2017-12-08T12:55:36.412Z,63.67
2017-12-08T12:56:46.722Z,63.76
2017-12-08T12:57:56.778Z,63.67
2017-12-08T12:59:06.522Z,64.11
2017-12-08T13:00:16.804Z,64.05
2017-12-08T13:01:27.144Z,63.67
2017-12-08T13:02:37.433Z,64.05
2017-12-08T13:03:47.100Z,63.95
2017-12-08T13:04:57.736Z,63.95
2017-12-08T13:06:08.115Z,64.14
2017-12-08T13:07:18.514Z,64.14
2017-12-08T13:08:28.837Z,63.95
2017-12-08T13:09:38.873Z,63.95
2017-12-08T13:10:49.173Z,63.39
2017-12-08T13:11:59.295Z,63.57
2017-12-08T13:13:10.009Z,63.39
2017-12-08T13:14:20.032Z,63.48
2017-12-08T13:15:30.328Z,63.57
2017-12-08T13:16:40.402Z,62.72
2017-12-08T13:18:22.656Z,63.01
2017-12-08T13:19:32.940Z,61.96
2017-12-08T13:20:43.083Z,61.39
2017-12-08T13:21:53.201Z,61.58
2017-12-08T13:23:03.320Z,61.58
2017-12-08T13:24:13.722Z,61.1
2017-12-08T13:25:24.378Z,61.2
2017-12-08T13:26:34.277Z,61.74
2017-12-08T13:27:44.268Z,61.68
2017-12-08T13:28:54.695Z,61.65
2017-12-08T13:30:05.002Z,61.65
2017-12-08T13:31:15.286Z,62.21
2017-12-08T13:32:25.547Z,62.02
2017-12-08T13:33:36.008Z,61.83
2017-12-08T13:34:46.282Z,62.02
2017-12-08T13:35:56.637Z,61.83
2017-12-08T13:37:06.678Z,61.93
2017-12-08T13:38:16.580Z,61.93
2017-12-08T13:39:26.876Z,61.83
2017-12-08T13:40:37.221Z,61.83
2017-12-08T13:42:19.312Z,62.12
2017-12-08T13:43:29.586Z,62.69
2017-12-08T13:44:39.658Z,65.06
2017-12-08T13:45:49.658Z,68.39
2017-12-08T13:46:59.965Z,72.09
2017-12-08T13:48:10.145Z,73.48
2017-12-08T13:49:20.609Z,74.71
2017-12-08T13:50:30.929Z,75.62
2017-12-08T13:51:41.300Z,76.2
2017-12-08T13:52:51.645Z,76.67
2017-12-08T13:54:01.745Z,76.86
2017-12-08T13:55:12.287Z,77.71
2017-12-08T13:56:22.589Z,77.67
2017-12-08T13:57:32.882Z,77.86
2017-12-08T13:58:43.384Z,78.24
2017-12-08T13:59:53.726Z,78.72
2017-12-08T14:01:04.310Z,79.28
2017-12-08T14:02:14.650Z,79
2017-12-08T14:03:25.032Z,79.85
2017-12-08T14:04:35.372Z,80.04
2017-12-08T14:05:45.491Z,80.24
2017-12-08T14:06:56.484Z,80.43
2017-12-08T14:08:06.800Z,81.75
2017-12-08T14:09:16.840Z,82.04
2017-12-08T14:10:27.198Z,81.27
2017-12-08T14:11:37.501Z,82.09
2017-12-08T14:12:47.887Z,83.23
2017-12-08T14:13:58.295Z,82.94
2017-12-08T14:15:08.405Z,83.04
2017-12-08T14:16:18.708Z,83.13
2017-12-08T14:17:28.992Z,82.85
2017-12-08T14:18:39.157Z,83.13
2017-12-08T14:19:49.490Z,83.42
2017-12-08T14:20:59.805Z,83.51
2017-12-08T14:22:09.970Z,82.85
2017-12-08T14:23:20.376Z,83.13
2017-12-08T14:24:30.388Z,83.04
2017-12-08T14:25:40.769Z,83.8
2017-12-08T14:26:51.063Z,82.85
2017-12-08T14:28:01.354Z,83.7
2017-12-08T14:29:11.741Z,82.75
2017-12-08T14:30:22.028Z,82.66
2017-12-08T14:31:32.191Z,82.37
2017-12-08T14:32:41.886Z,82.75
2017-12-08T14:33:52.197Z,82.94
2017-12-08T14:35:02.530Z,83.13
2017-12-08T14:36:12.466Z,82.94
2017-12-08T14:37:22.993Z,82.94
2017-12-08T14:38:33.349Z,82.37
2017-12-08T14:39:43.345Z,82.18
2017-12-08T14:40:53.804Z,81.99
2017-12-08T14:42:03.908Z,82.09
2017-12-08T14:43:14.242Z,81.99
2017-12-08T14:44:24.630Z,82.18
2017-12-08T14:45:34.512Z,82.94
2017-12-08T14:46:44.823Z,82.47
2017-12-08T14:47:55.150Z,82.09
2017-12-08T14:49:05.068Z,82.75
2017-12-08T14:50:15.584Z,82.94
2017-12-08T14:51:25.882Z,82.66
2017-12-08T14:52:36.097Z,83.23
2017-12-08T14:53:46.378Z,82.94
2017-12-08T14:54:56.407Z,83.13
2017-12-08T14:56:06.723Z,83.13
2017-12-08T14:57:16.892Z,83.51
2017-12-08T14:58:27.266Z,83.04
2017-12-08T14:59:37.547Z,83.32
2017-12-08T15:00:48.118Z,83.04
2017-12-08T15:01:58.437Z,83.51
2017-12-08T15:03:08.916Z,83.89
2017-12-08T15:04:19.103Z,83.04
2017-12-08T15:05:29.390Z,83.89
2017-12-08T15:06:39.780Z,83.13
2017-12-08T15:07:50.059Z,84.08
2017-12-08T15:09:00.107Z,83.32
2017-12-08T15:10:10.419Z,83.23